createdAt,value
2023-03-27T00:02:21.472Z,1.11
2023-03-27T00:05:24.353Z,1.07
2023-03-27T00:08:27.485Z,1.06
2023-03-27T00:11:29.230Z,1.04
2023-03-27T00:14:30.998Z,1.00
2023-03-27T00:17:33.733Z,0.98
2023-03-27T00:20:37.455Z,0.95
2023-03-27T00:23:40.709Z,0.94
2023-03-27T00:26:43.135Z,0.90
2023-03-27T00:29:46.419Z,0.86
2023-03-27T00:32:48.048Z,0.82
2023-03-27T00:35:50.336Z,0.79
2023-03-27T00:38:53.369Z,0.74
2023-03-27T00:41:55.623Z,0.68
2023-03-27T00:44:57.641Z,0.64
2023-03-27T00:48:01.417Z,0.62
2023-03-27T00:51:03.975Z,0.56
2023-03-27T00:54:07.248Z,0.51
2023-03-27T00:57:12.517Z,0.46
2023-03-27T01:00:16.948Z,0.44
2023-03-27T01:03:20.011Z,0.41
2023-03-27T01:06:22.227Z,0.41
2023-03-27T01:09:27.855Z,0.35
2023-03-27T01:12:35.305Z,0.34
2023-03-27T01:15:39.959Z,0.34
2023-03-27T01:18:48.416Z,0.30
2023-03-27T01:22:09.385Z,0.28
2023-03-27T01:25:25.320Z,0.26
2023-03-27T01:28:35.850Z,0.26
2023-03-27T01:31:51.560Z,0.24
2023-03-27T01:35:04.448Z,0.23
2023-03-27T01:38:18.596Z,0.25
2023-03-27T01:41:24.772Z,0.26
2023-03-27T01:44:43.257Z,0.24
2023-03-27T01:47:51.648Z,0.23
2023-03-27T01:50:56.838Z,0.21
2023-03-27T01:54:02.151Z,0.23
2023-03-27T01:57:08.453Z,0.17
2023-03-27T02:00:19.377Z,0.21
2023-03-27T02:03:23.188Z,0.17
2023-03-27T02:06:28.369Z,0.16
2023-03-27T02:09:34.485Z,0.14
2023-03-27T02:12:39.647Z,0.14
2023-03-27T02:15:43.353Z,0.11
2023-03-27T02:18:49.677Z,0.13
2023-03-27T02:21:51.259Z,0.10
2023-03-27T02:24:54.057Z,0.12
2023-03-27T02:28:12.686Z,0.13
2023-03-27T02:31:32.968Z,0.10
2023-03-27T02:34:50.373Z,0.11
2023-03-27T02:37:56.876Z,0.14
2023-03-27T02:41:13.260Z,0.15
2023-03-27T02:44:24.699Z,0.14
2023-03-27T02:47:34.965Z,0.19
2023-03-27T02:50:39.081Z,0.17
2023-03-27T02:53:47.512Z,0.13
2023-03-27T02:56:51.921Z,0.11
2023-03-27T03:00:21.399Z,0.14
2023-03-27T03:03:32.172Z,0.18
2023-03-27T03:06:42.614Z,0.12
2023-03-27T03:09:44.692Z,0.08
2023-03-27T03:12:46.294Z,0.07
2023-03-27T03:15:50.508Z,0.08
2023-03-27T03:18:52.587Z,0.01
2023-03-27T03:21:54.440Z,-0.01
2023-03-27T03:24:57.116Z,-0.07
2023-03-27T03:28:02.669Z,-0.11
2023-03-27T03:31:10.825Z,-0.12
2023-03-27T03:34:13.232Z,-0.14
2023-03-27T03:37:15.167Z,-0.19
2023-03-27T03:40:18.215Z,-0.25
2023-03-27T03:43:22.086Z,-0.24
2023-03-27T03:46:25.209Z,-0.30
2023-03-27T03:49:27.205Z,-0.28
2023-03-27T03:52:28.752Z,-0.33
2023-03-27T03:55:30.772Z,-0.28
2023-03-27T03:58:34.701Z,-0.34
2023-03-27T04:01:40.871Z,-0.37
2023-03-27T04:04:43.765Z,-0.37
2023-03-27T04:07:49.754Z,-0.35
2023-03-27T04:11:11.642Z,-0.37
2023-03-27T04:17:53.787Z,-0.50
2023-03-27T04:20:58.661Z,-0.45
2023-03-27T04:24:02.878Z,-0.45
2023-03-27T04:27:18.206Z,-0.37
2023-03-27T04:30:37.010Z,-0.37
2023-03-27T04:33:52.474Z,-0.39
2023-03-27T04:37:07.951Z,-0.47
2023-03-27T04:40:16.118Z,-0.54
2023-03-27T04:43:17.933Z,-0.50
2023-03-27T04:46:19.593Z,-0.53
2023-03-27T04:49:29.244Z,-0.55
2023-03-27T04:52:35.988Z,-0.66
2023-03-27T04:55:38.295Z,-0.71
2023-03-27T04:58:41.129Z,-0.76
2023-03-27T05:01:47.051Z,-0.71
2023-03-27T05:05:02.198Z,-0.66
2023-03-27T05:08:09.798Z,-0.68
2023-03-27T05:11:11.490Z,-0.74
2023-03-27T05:14:17.089Z,-0.68
2023-03-27T05:17:18.790Z,-0.72
2023-03-27T05:20:22.641Z,-0.78
2023-03-27T05:23:24.541Z,-0.72
2023-03-27T05:26:26.999Z,-0.68
2023-03-27T05:29:46.970Z,-0.67
2023-03-27T05:32:51.825Z,-0.64
2023-03-27T05:36:03.153Z,-0.61
2023-03-27T05:39:04.847Z,-0.55
2023-03-27T05:42:11.889Z,-0.56
2023-03-27T05:45:15.550Z,-0.56
2023-03-27T05:48:17.473Z,-0.60
2023-03-27T05:51:21.079Z,-0.56
2023-03-27T05:54:22.995Z,-0.57
2023-03-27T05:57:37.618Z,-0.59
2023-03-27T06:00:45.103Z,-0.55
2023-03-27T06:03:57.384Z,-0.54
2023-03-27T06:07:05.261Z,-0.46
2023-03-27T06:10:13.798Z,-0.41
2023-03-27T06:13:18.659Z,-0.32
2023-03-27T06:16:30.894Z,-0.24
2023-03-27T06:19:43.146Z,-0.18
2023-03-27T06:22:47.137Z,-0.14
2023-03-27T06:25:51.163Z,-0.10
2023-03-27T06:28:56.893Z,-0.08
2023-03-27T06:31:58.604Z,-0.06
2023-03-27T06:35:03.806Z,0.05
2023-03-27T06:38:32.237Z,0.20
2023-03-27T06:41:35.861Z,0.32
2023-03-27T06:44:56.867Z,0.39
2023-03-27T06:48:21.516Z,0.44
2023-03-27T06:51:26.961Z,0.49
2023-03-27T06:54:30.980Z,0.52
2023-03-27T06:57:32.652Z,0.53
2023-03-27T07:00:37.450Z,0.44
2023-03-27T07:03:53.938Z,0.47
2023-03-27T07:07:34.684Z,0.51
2023-03-27T07:10:39.168Z,0.53
2023-03-27T07:13:41.500Z,0.51
2023-03-27T07:16:49.774Z,0.46
2023-03-27T07:19:51.733Z,0.57
2023-03-27T07:22:57.502Z,0.69
2023-03-27T07:26:20.342Z,0.76
2023-03-27T07:29:28.827Z,0.69
2023-03-27T07:32:37.020Z,0.95
2023-03-27T07:35:41.822Z,1.02
2023-03-27T07:39:14.173Z,1.11
2023-03-27T07:42:17.160Z,1.17
2023-03-27T07:45:33.694Z,1.07
2023-03-27T07:48:36.339Z,1.17
2023-03-27T07:51:38.792Z,1.09
2023-03-27T07:54:41.283Z,1.26
2023-03-27T07:57:59.851Z,1.44
2023-03-27T08:01:04.617Z,1.48
2023-03-27T08:04:07.364Z,1.61
2023-03-27T08:07:11.818Z,1.73
2023-03-27T08:10:16.521Z,1.90
2023-03-27T08:13:32.086Z,2.01
2023-03-27T08:16:37.199Z,2.09
2023-03-27T08:19:38.929Z,1.98
2023-03-27T08:22:41.560Z,2.04
2023-03-27T08:26:18.160Z,2.44
2023-03-27T08:29:27.337Z,2.62
2023-03-27T08:32:28.899Z,2.69
2023-03-27T08:35:31.117Z,2.78
2023-03-27T08:38:34.073Z,2.68
2023-03-27T08:41:45.220Z,2.73
2023-03-27T08:45:20.758Z,2.91
2023-03-27T08:48:28.925Z,2.98
2023-03-27T08:51:32.017Z,2.65
2023-03-27T08:54:34.405Z,2.79
2023-03-27T08:57:37.425Z,2.83
2023-03-27T09:00:47.758Z,2.91
2023-03-27T09:04:00.023Z,3.23
2023-03-27T09:07:06.119Z,2.98
2023-03-27T09:10:17.423Z,2.89
2023-03-27T09:13:27.768Z,2.85
2023-03-27T09:16:32.987Z,2.88
2023-03-27T09:19:40.972Z,2.92
2023-03-27T09:22:44.384Z,2.97
2023-03-27T09:25:51.702Z,2.83
2023-03-27T09:29:31.303Z,2.98
2023-03-27T09:32:51.960Z,3.25
2023-03-27T09:35:55.649Z,3.33
2023-03-27T09:39:02.155Z,3.52
2023-03-27T09:42:09.178Z,3.49
2023-03-27T09:45:12.734Z,3.67
2023-03-27T09:48:35.260Z,3.60
2023-03-27T09:51:44.635Z,3.75
2023-03-27T09:55:23.610Z,3.74
2023-03-27T09:58:31.239Z,3.66
2023-03-27T10:01:34.716Z,3.47
2023-03-27T10:04:56.567Z,3.56
2023-03-27T10:07:59.384Z,3.43
2023-03-27T10:11:23.342Z,3.47
2023-03-27T10:14:36.409Z,3.56
2023-03-27T10:17:39.256Z,3.78
2023-03-27T10:20:51.804Z,3.48
2023-03-27T10:23:59.516Z,3.96
2023-03-27T10:27:21.568Z,3.74
2023-03-27T10:30:41.621Z,3.81
2023-03-27T10:34:04.737Z,3.56
2023-03-27T10:37:50.072Z,3.44
2023-03-27T10:41:15.886Z,3.47
2023-03-27T10:44:30.512Z,3.55
2023-03-27T10:47:34.130Z,3.65
2023-03-27T10:50:42.171Z,3.63
2023-03-27T10:53:49.216Z,3.81
2023-03-27T10:56:57.123Z,3.96
2023-03-27T11:00:01.485Z,4.09
2023-03-27T11:03:20.257Z,3.95
2023-03-27T11:06:28.526Z,3.74
2023-03-27T11:09:34.125Z,2.79
2023-03-27T11:12:48.335Z,1.95
2023-03-27T11:15:54.205Z,1.71
2023-03-27T11:19:27.037Z,1.58
2023-03-27T11:22:52.739Z,1.60
2023-03-27T11:26:12.908Z,1.66
2023-03-27T11:29:21.255Z,1.81
2023-03-27T11:32:29.891Z,2.07
2023-03-27T11:35:36.906Z,2.71
2023-03-27T11:39:12.078Z,3.30
2023-03-27T11:42:23.034Z,3.88
2023-03-27T11:45:25.674Z,3.95
2023-03-27T11:48:36.962Z,4.03
2023-03-27T11:51:44.590Z,4.03
2023-03-27T11:54:55.530Z,3.84
2023-03-27T11:58:09.419Z,3.32
2023-03-27T12:01:22.698Z,2.13
2023-03-27T12:04:36.739Z,1.37
2023-03-27T12:08:07.243Z,0.94
2023-03-27T12:11:10.782Z,0.98
2023-03-27T12:14:40.808Z,1.20
2023-03-27T12:17:50.731Z,1.82
2023-03-27T12:21:03.563Z,2.50
2023-03-27T12:24:21.226Z,2.84
2023-03-27T12:27:47.589Z,2.97
2023-03-27T12:31:16.485Z,3.15
2023-03-27T12:34:26.993Z,3.32
2023-03-27T12:37:31.087Z,3.34
2023-03-27T12:40:38.475Z,3.23
2023-03-27T12:43:44.694Z,3.37
2023-03-27T12:47:15.928Z,3.64
2023-03-27T12:50:19.318Z,3.93
2023-03-27T12:53:41.477Z,3.94
2023-03-27T12:56:49.053Z,3.79
2023-03-27T12:59:52.313Z,3.66
2023-03-27T13:03:06.465Z,3.52
2023-03-27T13:06:17.278Z,2.96
2023-03-27T13:09:27.566Z,2.48
2023-03-27T13:12:45.115Z,1.89
2023-03-27T13:15:59.768Z,1.03
2023-03-27T13:19:29.303Z,0.83
2023-03-27T13:22:49.772Z,0.83
2023-03-27T13:26:06.696Z,0.85
2023-03-27T13:29:15.423Z,0.79
2023-03-27T13:32:32.029Z,0.96
2023-03-27T13:35:59.369Z,1.33
2023-03-27T13:39:18.422Z,1.95
2023-03-27T13:42:24.783Z,2.24
2023-03-27T13:45:29.727Z,2.30
2023-03-27T13:49:21.162Z,2.69
2023-03-27T13:53:07.910Z,2.97
2023-03-27T13:56:55.813Z,3.31
2023-03-27T14:00:41.455Z,3.58
2023-03-27T14:04:02.813Z,3.65
2023-03-27T14:07:18.104Z,3.95
2023-03-27T14:10:51.094Z,4.07
2023-03-27T14:14:06.903Z,4.03
2023-03-27T14:17:23.084Z,4.19
2023-03-27T14:20:25.953Z,4.24
2023-03-27T14:23:29.513Z,4.60
2023-03-27T14:26:45.383Z,4.73
2023-03-27T14:30:00.549Z,4.84
2023-03-27T14:33:08.509Z,4.56
2023-03-27T14:36:16.859Z,4.17
2023-03-27T14:39:23.700Z,3.95
2023-03-27T14:42:33.182Z,3.85
2023-03-27T14:45:37.521Z,3.86
2023-03-27T14:48:42.861Z,3.76
2023-03-27T14:51:47.525Z,3.69
2023-03-27T14:55:04.637Z,3.77
2023-03-27T14:58:13.793Z,3.71
2023-03-27T15:01:17.321Z,3.68
2023-03-27T15:04:26.484Z,3.65
2023-03-27T15:07:33.241Z,3.62
2023-03-27T15:10:40.851Z,3.59
2023-03-27T15:13:42.513Z,3.62
2023-03-27T15:16:55.105Z,3.62
2023-03-27T15:20:09.920Z,3.65
2023-03-27T15:23:17.076Z,3.66
2023-03-27T15:26:20.848Z,3.68
2023-03-27T15:29:28.190Z,3.62
2023-03-27T15:32:42.133Z,3.34
2023-03-27T15:35:47.423Z,2.20
2023-03-27T15:38:51.177Z,2.19
2023-03-27T15:41:52.994Z,2.51
2023-03-27T15:44:57.809Z,2.59
2023-03-27T15:48:00.952Z,2.84
2023-03-27T15:51:05.101Z,2.94
2023-03-27T15:54:21.534Z,3.03
2023-03-27T15:57:23.387Z,3.26
2023-03-27T16:00:27.540Z,3.47
2023-03-27T16:03:32.778Z,3.36
2023-03-27T16:06:38.611Z,3.14
2023-03-27T16:09:47.032Z,3.32
2023-03-27T16:12:49.746Z,3.23
2023-03-27T16:15:56.012Z,3.07
2023-03-27T16:18:59.144Z,3.05
2023-03-27T16:22:02.084Z,3.04
2023-03-27T16:25:04.740Z,2.99
2023-03-27T16:28:07.650Z,2.96
2023-03-27T16:31:12.550Z,2.91
2023-03-27T16:34:22.937Z,3.11
2023-03-27T16:37:26.663Z,3.35
2023-03-27T16:40:28.352Z,3.30
2023-03-27T16:43:29.935Z,3.36
2023-03-27T16:46:32.239Z,3.33
2023-03-27T16:49:33.874Z,3.33
2023-03-27T16:52:36.879Z,3.20
2023-03-27T16:55:38.530Z,3.18
2023-03-27T16:58:40.384Z,3.20
2023-03-27T17:01:41.916Z,2.99
2023-03-27T17:04:44.151Z,2.87
2023-03-27T17:07:48.339Z,2.80
2023-03-27T17:10:49.893Z,2.65
2023-03-27T17:13:51.602Z,2.49
2023-03-27T17:16:53.303Z,2.44
2023-03-27T17:19:55.348Z,2.46
2023-03-27T17:22:58.374Z,2.53
2023-03-27T17:26:00.637Z,2.50
2023-03-27T17:29:05.146Z,2.54
2023-03-27T17:32:07.015Z,2.59
2023-03-27T17:35:09.070Z,2.61
2023-03-27T17:38:12.040Z,2.60
2023-03-27T17:41:14.569Z,2.60
2023-03-27T17:44:16.197Z,2.57
2023-03-27T17:47:17.761Z,2.56
2023-03-27T17:50:19.803Z,2.52
2023-03-27T17:53:22.684Z,2.47
2023-03-27T17:56:24.182Z,2.44
2023-03-27T17:59:26.196Z,2.36
2023-03-27T18:02:27.960Z,2.44
2023-03-27T18:05:29.572Z,2.46
2023-03-27T18:08:34.137Z,2.44
2023-03-27T18:11:35.824Z,2.40
2023-03-27T18:14:38.184Z,2.40
2023-03-27T18:17:39.715Z,2.36
2023-03-27T18:20:41.460Z,2.29
2023-03-27T18:23:46.515Z,2.27
2023-03-27T18:26:48.628Z,2.27
2023-03-27T18:29:50.277Z,2.21
2023-03-27T18:32:52.185Z,2.24
2023-03-27T18:35:55.545Z,2.16
2023-03-27T18:38:58.814Z,2.09
2023-03-27T18:42:02.137Z,2.07
2023-03-27T18:45:03.987Z,2.01
2023-03-27T18:48:06.055Z,2.01
2023-03-27T18:51:07.684Z,1.96
2023-03-27T18:54:16.273Z,1.94
2023-03-27T18:57:20.060Z,1.95
2023-03-27T19:00:21.832Z,1.91
2023-03-27T19:03:24.184Z,1.88
2023-03-27T19:06:27.044Z,1.88
2023-03-27T19:09:40.976Z,1.85
2023-03-27T19:12:44.649Z,1.83
2023-03-27T19:16:14.929Z,1.78
2023-03-27T19:19:37.387Z,1.72
2023-03-27T19:22:54.898Z,1.67
2023-03-27T19:26:07.333Z,1.68
2023-03-27T19:29:10.469Z,1.66
2023-03-27T19:32:12.069Z,1.66
2023-03-27T19:35:13.575Z,1.73
2023-03-27T19:38:15.449Z,1.74
2023-03-27T19:41:17.547Z,1.76
2023-03-27T19:44:21.201Z,1.70
2023-03-27T19:47:22.860Z,1.66
2023-03-27T19:50:24.411Z,1.63
2023-03-27T19:53:33.365Z,1.58
2023-03-27T19:56:35.258Z,1.57
2023-03-27T19:59:38.345Z,1.59
2023-03-27T20:02:41.007Z,1.61
2023-03-27T20:05:46.242Z,1.60
2023-03-27T20:08:48.146Z,1.53
2023-03-27T20:11:51.030Z,1.50
2023-03-27T20:15:06.990Z,1.43
2023-03-27T20:18:16.506Z,1.36
2023-03-27T20:21:18.768Z,1.31
2023-03-27T20:24:20.286Z,1.32
2023-03-27T20:27:28.705Z,1.30
2023-03-27T20:30:32.114Z,1.33
2023-03-27T20:33:33.666Z,1.37
2023-03-27T20:36:39.194Z,1.39
2023-03-27T20:40:07.131Z,1.38
2023-03-27T20:43:09.628Z,1.38
2023-03-27T20:46:14.130Z,1.37
2023-03-27T20:52:33.041Z,1.37
2023-03-27T20:55:43.611Z,1.32
2023-03-27T20:58:51.718Z,1.31
2023-03-27T21:01:54.547Z,1.29
2023-03-27T21:04:56.687Z,1.25
2023-03-27T21:07:59.846Z,1.22
2023-03-27T21:11:02.109Z,1.19
2023-03-27T21:14:03.740Z,1.15
2023-03-27T21:17:06.657Z,1.14
2023-03-27T21:20:10.496Z,1.13
2023-03-27T21:23:12.203Z,1.13
2023-03-27T21:26:14.427Z,1.14
2023-03-27T21:29:16.071Z,1.20
2023-03-27T21:32:18.936Z,1.15
2023-03-27T21:35:20.579Z,1.14
2023-03-27T21:38:22.242Z,1.14
2023-03-27T21:41:24.273Z,1.11
2023-03-27T21:44:26.582Z,1.08
2023-03-27T21:47:40.826Z,1.03
2023-03-27T21:50:48.449Z,1.01
2023-03-27T21:53:50.356Z,1.00
2023-03-27T21:56:52.014Z,0.95
2023-03-27T21:59:53.641Z,0.98
2023-03-27T22:02:57.052Z,0.95
2023-03-27T22:09:09.965Z,0.88
2023-03-27T22:12:11.882Z,0.89
2023-03-27T22:15:13.425Z,0.90
2023-03-27T22:18:16.575Z,0.88
2023-03-27T22:21:19.545Z,0.88
2023-03-27T22:24:21.631Z,0.92
2023-03-27T22:27:23.399Z,0.93
2023-03-27T22:30:25.658Z,0.93
2023-03-27T22:33:28.565Z,0.94
2023-03-27T22:36:30.727Z,0.94
2023-03-27T22:39:32.245Z,0.95
2023-03-27T22:42:34.325Z,0.95
2023-03-27T22:45:36.021Z,0.93
2023-03-27T22:48:39.267Z,0.92
2023-03-27T22:51:41.029Z,0.90
2023-03-27T22:54:42.725Z,0.86
2023-03-27T22:57:44.169Z,0.85
2023-03-27T23:00:46.540Z,0.85
2023-03-27T23:03:49.700Z,0.84
2023-03-27T23:06:51.462Z,0.80
2023-03-27T23:09:53.049Z,0.81
2023-03-27T23:12:54.689Z,0.79
2023-03-27T23:15:56.587Z,0.77
2023-03-27T23:18:59.595Z,0.73
2023-03-27T23:22:01.366Z,0.72
2023-03-27T23:25:02.933Z,0.70
2023-03-27T23:28:04.864Z,0.67
2023-03-27T23:31:07.065Z,0.65
2023-03-27T23:34:10.027Z,0.63
2023-03-27T23:37:11.574Z,0.61
2023-03-27T23:40:13.351Z,0.57
2023-03-27T23:43:14.820Z,0.54
2023-03-27T23:46:16.486Z,0.53
2023-03-27T23:49:19.818Z,0.51
2023-03-27T23:52:21.336Z,0.50
2023-03-27T23:55:22.912Z,0.44
2023-03-27T23:58:24.791Z,0.43
